Time;durP1;ratioP1;P1;durP2;ratioP2;P2;SDS_P1;SDS_P2;PMS_P1;PMS_P2;Temp;Humidity;BMP_temperature;BMP_pressure;BME280_temperature;BME280_humidity;BME280_pressure;Samples;Min_cycle;Max_cycle;Signal;HPM_P1;HPM_P2
2022/04/08 07:06:01;;;;;;;;;3.00;2.00;;;;;17.35;52.61;99605.16;5092949;27;1333073;-71
2022/04/08 07:08:26;;;;;;;;;2.00;0.00;;;;;17.52;53.48;99600.78;5119522;27;46921;-71
2022/04/08 07:10:52;;;;;;;;;3.50;0.00;;;;;17.81;53.97;99601.50;5114994;27;45973;-71
2022/04/08 07:13:17;;;;;;;;;1.00;1.00;;;;;18.19;53.52;99596.66;5128709;27;45444;-71
2022/04/08 07:15:42;;;;;;;;;1.25;0.25;;;;;18.61;52.98;99603.06;5130436;27;45538;-71
2022/04/08 07:18:07;;;;;;;;;4.00;1.00;;;;;19.06;51.98;99595.63;5131299;27;45545;-70
2022/04/08 07:20:33;;;;;;;;;2.25;2.25;;;;;19.52;51.49;99590.72;5130599;27;45410;-70
2022/04/08 07:23:01;;;;;;;;;3.00;2.50;;;;;19.95;50.43;99587.81;5127701;27;45355;-70
2022/04/08 07:25:27;;;;;;;;;2.00;2.00;;;;;20.36;49.59;99566.09;5128459;27;45446;-71
2022/04/08 07:27:55;;;;;;;;;0.00;0.00;;;;;20.76;49.43;99570.63;5127023;27;45471;-70
2022/04/08 07:30:22;;;;;;;;;4.00;1.00;;;;;21.10;48.66;99557.75;5129476;27;45454;-70
2022/04/08 07:32:52;;;;;;;;;1.00;1.00;;;;;21.41;47.94;99546.84;5134453;27;45461;-69
2022/04/08 07:35:18;;;;;;;;;1.33;1.00;;;;;21.70;47.30;99530.88;5122853;27;45691;-71
2022/04/08 07:37:44;;;;;;;;;4.00;1.00;;;;;21.94;46.96;99521.69;5114301;27;45867;-69
2022/04/08 07:40:12;;;;;;;;;2.00;0.67;;;;;22.20;46.14;99524.91;5113845;27;45492;-69
2022/04/08 07:42:38;;;;;;;;;4.67;1.67;;;;;22.41;46.31;99517.88;5128715;27;45418;-71
2022/04/08 07:45:04;;;;;;;;;3.00;1.00;;;;;22.58;45.66;99508.53;5135525;27;46087;-71
2022/04/08 07:47:30;;;;;;;;;1.00;1.00;;;;;22.76;45.39;99499.97;5132521;27;45620;-71
2022/04/08 07:49:59;;;;;;;;;4.00;1.67;;;;;22.91;45.22;99490.94;5133626;27;45582;-71
2022/04/08 07:52:26;;;;;;;;;1.00;0.00;;;;;23.06;44.71;99498.13;5134181;27;45551;-71
2022/04/08 07:54:53;;;;;;;;;2.33;1.00;;;;;23.17;44.11;99481.34;5128783;27;45401;-70
2022/04/08 07:57:18;;;;;;;;;1.33;1.00;;;;;23.30;43.53;99492.28;5129505;27;45266;-69
2022/04/08 07:59:43;;;;;;;;;1.67;1.67;;;;;23.37;42.98;99486.09;5133338;27;45676;-69
2022/04/08 08:02:10;;;;;;;;;1.00;1.00;;;;;23.46;42.93;99492.22;5131607;27;45606;-71
2022/04/08 08:04:35;;;;;;;;;3.00;1.00;;;;;23.50;42.49;99474.53;5127757;27;46091;-70
2022/04/08 08:07:01;;;;;;;;;5.00;1.00;;;;;23.57;42.66;99467.28;5126249;27;45758;-70
2022/04/08 08:09:26;;;;;;;;;2.00;2.00;;;;;23.64;42.16;99454.63;5122888;27;46913;-71
2022/04/08 08:11:51;;;;;;;;;0.33;0.33;;;;;23.73;41.94;99449.03;5139154;27;45459;-71
2022/04/08 08:14:17;;;;;;;;;2.00;2.00;;;;;23.80;41.90;99436.34;5129894;27;56076;-70
2022/04/08 08:16:42;;;;;;;;;2.33;1.00;;;;;23.85;41.95;99422.19;5126011;27;45461;-71
2022/04/08 08:19:07;;;;;;;;;0.00;0.00;;;;;23.93;41.50;99424.72;5117213;27;45517;-70
2022/04/08 08:21:33;;;;;;;;;1.00;1.00;;;;;23.98;41.76;99407.88;5112846;27;45378;-70
2022/04/08 08:23:58;;;;;;;;;1.67;0.33;;;;;24.04;41.65;99394.31;5118719;27;45540;-70
2022/04/08 08:26:23;;;;;;;;;5.67;2.00;;;;;24.11;41.31;99397.06;5112566;27;45402;-70
2022/04/08 08:28:49;;;;;;;;;1.67;0.00;;;;;24.14;41.47;99388.53;5123057;27;45526;-70
2022/04/08 08:31:16;;;;;;;;;1.00;1.00;;;;;24.20;41.22;99373.34;5123026;27;45485;-70
2022/04/08 08:33:43;;;;;;;;;5.33;2.00;;;;;24.23;41.28;99366.66;5119156;27;46200;-70
2022/04/08 08:36:09;;;;;;;;;2.67;1.00;;;;;24.27;41.24;99367.94;5125007;27;45809;-70
2022/04/08 08:38:35;;;;;;;;;3.00;1.00;;;;;24.31;41.36;99375.44;5112985;27;45507;-70
2022/04/08 08:41:01;;;;;;;;;2.67;0.67;;;;;24.36;40.87;99369.38;5123537;27;45707;-70
2022/04/08 08:43:27;;;;;;;;;1.00;1.00;;;;;24.40;41.15;99364.38;5118466;27;46285;-70
2022/04/08 08:45:56;;;;;;;;;1.33;0.00;;;;;24.45;41.16;99351.03;5116185;27;45810;-69
2022/04/08 08:48:22;;;;;;;;;3.00;1.00;;;;;24.51;41.01;99352.91;5117654;27;45574;-69
2022/04/08 08:50:48;;;;;;;;;1.33;1.00;;;;;24.56;41.17;99366.66;5119346;27;45333;-68
2022/04/08 08:53:19;;;;;;;;;2.00;1.33;;;;;24.60;41.03;99346.22;5117546;27;46166;-69
2022/04/08 08:55:45;;;;;;;;;3.00;3.00;;;;;24.62;40.08;99310.75;5108739;27;45774;-68
2022/04/08 08:58:11;;;;;;;;;4.67;3.33;;;;;24.64;39.01;99305.94;5114057;27;45449;-70
2022/04/08 11:52:07;;;;;;;;;6.50;4.75;;;;;17.18;50.98;99178.69;5059694;27;45495;-72
2022/04/08 11:54:38;;;;;;;;;7.25;5.25;;;;;17.35;51.44;99176.88;5061284;27;45850;-70
2022/04/08 11:57:07;;;;;;;;;6.75;4.50;;;;;17.64;51.22;99166.66;5064458;28;45484;-70
2022/04/08 11:59:33;;;;;;;;;11.25;8.00;;;;;17.99;50.80;99150.38;5066538;28;45417;-70
2022/04/08 12:01:59;;;;;;;;;7.50;4.25;;;;;18.43;50.27;99147.28;5065541;28;46047;-69
2022/04/08 12:04:25;;;;;;;;;6.00;3.25;;;;;18.86;49.67;99138.03;5064616;27;45405;-68
2022/04/08 12:06:50;;;;;;;;;5.75;3.50;;;;;19.27;49.24;99112.75;5052999;28;45477;-68
2022/04/08 12:09:20;;;;;;;;;7.00;5.25;;;;;19.70;48.59;99084.47;5066162;28;45740;-70
2022/04/08 12:11:47;;;;;;;;;8.00;5.25;;;;;20.13;47.62;99086.56;5052288;28;46243;-68
2022/04/08 12:14:14;;;;;;;;;6.75;3.00;;;;;20.51;47.43;99075.66;5059433;28;45311;-67
2022/04/08 12:16:41;;;;;;;;;5.00;4.00;;;;;20.88;46.37;99078.38;5067156;28;45491;-68
2022/04/08 12:19:08;;;;;;;;;6.00;5.00;;;;;21.21;45.98;99081.63;5063843;28;45536;-69
2022/04/08 12:21:35;;;;;;;;;7.33;2.67;;;;;21.50;45.37;99077.91;5068672;28;45324;-69
2022/04/08 12:24:05;;;;;;;;;4.67;3.00;;;;;21.77;45.23;99080.84;5067285;28;45398;-69
2022/04/08 12:26:33;;;;;;;;;2.33;2.33;;;;;22.04;45.04;99063.97;5057939;28;45379;-70
2022/04/08 12:29:05;;;;;;;;;6.67;4.67;;;;;22.28;44.57;99064.50;5052417;28;45525;-71
2022/04/08 12:31:30;;;;;;;;;7.00;4.00;;;;;22.48;43.77;99051.91;5061315;28;46180;-70
2022/04/08 12:33:55;;;;;;;;;9.67;5.33;;;;;22.70;43.87;99042.84;5066146;28;45474;-71
2022/04/08 12:36:21;;;;;;;;;5.67;4.67;;;;;22.86;43.83;99031.66;5064179;28;45335;-71
2022/04/08 12:38:46;;;;;;;;;10.00;6.00;;;;;23.02;43.57;99027.72;5068113;28;45462;-71
2022/04/08 12:41:12;;;;;;;;;4.00;3.00;;;;;23.17;43.06;99027.50;5062639;28;47066;-72
2022/04/08 12:43:37;;;;;;;;;6.00;3.33;;;;;23.29;42.96;99007.94;5064329;28;45759;-72
2022/04/08 12:46:03;;;;;;;;;6.00;3.00;;;;;23.41;42.56;99000.03;5064570;28;52428;-72
2022/04/08 12:48:28;;;;;;;;;3.33;2.67;;;;;23.51;42.65;98999.63;5061025;28;45418;-71
2022/04/08 12:50:56;;;;;;;;;4.00;3.00;;;;;23.59;42.24;98998.56;5075578;27;46142;-70
2022/04/08 12:53:22;;;;;;;;;6.33;3.00;;;;;23.65;42.32;99003.13;5073351;27;45426;-73
2022/04/08 12:55:47;;;;;;;;;3.33;3.33;;;;;23.74;42.33;99010.00;5076859;27;45500;-72
2022/04/08 12:58:12;;;;;;;;;4.67;3.33;;;;;23.80;42.00;99009.13;5083106;27;45435;-72
2022/04/08 13:00:38;;;;;;;;;8.00;7.00;;;;;23.88;41.97;99018.09;5072905;27;45375;-72
2022/04/08 13:03:03;;;;;;;;;4.67;3.67;;;;;23.95;41.85;99022.44;5058221;28;45703;-72
2022/04/08 13:05:28;;;;;;;;;7.00;3.00;;;;;24.03;41.73;99031.41;5076819;27;45412;-72
2022/04/08 13:07:54;;;;;;;;;5.00;4.00;;;;;24.10;41.55;99031.41;5067789;28;45448;-72
2022/04/08 13:10:20;;;;;;;;;4.33;2.67;;;;;24.14;41.67;99041.59;5073310;28;46872;-71
2022/04/08 13:12:45;;;;;;;;;4.00;4.00;;;;;24.17;41.42;99037.63;5074154;28;45610;-72
2022/04/08 13:15:11;;;;;;;;;5.00;3.00;;;;;24.21;41.35;99034.25;5060249;28;56267;-71
2022/04/08 13:17:38;;;;;;;;;3.67;2.33;;;;;24.25;41.16;99040.09;5062846;28;45461;-71
2022/04/08 13:20:09;;;;;;;;;6.67;6.00;;;;;24.28;41.24;99039.66;5065549;27;45484;-71
2022/04/08 13:22:35;;;;;;;;;4.67;4.67;;;;;24.30;41.58;99045.72;5063610;27;45421;-71
2022/04/08 13:25:00;;;;;;;;;8.00;6.00;;;;;24.31;40.11;99055.50;5061277;27;45503;-70
2022/04/08 13:27:25;;;;;;;;;9.00;6.00;;;;;24.34;39.49;99065.94;5065317;27;45466;-69
2022/04/08 13:29:51;;;;;;;;;9.33;8.33;;;;;24.28;39.03;99069.47;5068381;27;53943;-69
2022/04/08 13:32:19;;;;;;;;;14.00;7.67;;;;;24.24;38.93;99052.00;5052366;28;45289;-71
2022/04/08 13:34:46;;;;;;;;;10.00;7.00;;;;;24.19;38.96;99065.34;5055553;28;45537;-72
2022/04/08 13:37:12;;;;;;;;;15.00;9.00;;;;;24.14;39.38;99035.34;5071582;28;45485;-73
2022/04/08 13:39:37;;;;;;;;;7.33;7.00;;;;;24.14;39.15;99028.03;5057377;28;45929;-72
2022/04/08 13:42:04;;;;;;;;;8.67;5.00;;;;;24.13;39.25;99061.63;5055864;28;45444;-72
2022/04/08 13:44:30;;;;;;;;;10.67;4.33;;;;;24.15;38.99;99053.28;5063853;28;46674;-72
2022/04/08 13:46:56;;;;;;;;;7.33;7.00;;;;;24.16;39.20;99047.63;5061014;28;45718;-72
2022/04/08 13:49:21;;;;;;;;;6.00;6.00;;;;;24.18;39.59;99042.84;5069943;28;45494;-73
2022/04/08 13:51:47;;;;;;;;;5.33;4.33;;;;;24.24;39.44;99072.84;5057500;28;52526;-72
2022/04/08 13:54:12;;;;;;;;;10.33;5.33;;;;;24.26;39.89;99051.75;5070826;28;45472;-72
2022/04/08 13:56:38;;;;;;;;;6.00;5.33;;;;;24.30;39.74;99096.38;5066787;28;45479;-72
2022/04/08 13:59:03;;;;;;;;;6.00;5.33;;;;;24.35;39.23;99134.53;5062276;28;45428;-73
2022/04/08 14:01:29;;;;;;;;;6.00;4.67;;;;;24.39;39.38;99057.13;5063575;28;45518;-72
2022/04/08 14:03:54;;;;;;;;;7.67;6.00;;;;;24.45;39.40;99077.97;5069919;28;45486;-72
2022/04/08 14:06:19;;;;;;;;;11.33;8.00;;;;;24.47;39.33;99073.16;5057893;28;45376;-73
2022/04/08 14:08:45;;;;;;;;;4.67;3.33;;;;;24.54;39.10;99078.56;5073558;28;46378;-72
2022/04/08 14:11:11;;;;;;;;;6.33;4.33;;;;;24.59;39.39;99088.75;5061854;28;45562;-72
2022/04/08 14:13:36;;;;;;;;;3.67;3.67;;;;;24.56;38.77;99071.03;5067137;28;45742;-72
2022/04/08 15:03:00;;;;;;;;;3.00;3.00;;;;;19.69;43.92;99005.56;5085164;27;46464;-70
2022/04/08 15:05:26;;;;;;;;;4.33;3.00;;;;;19.70;44.93;99001.84;5085494;27;45499;-71
2022/04/08 15:07:51;;;;;;;;;4.00;4.00;;;;;19.85;44.57;99007.25;5080745;27;45658;-71
2022/04/08 15:10:16;;;;;;;;;4.67;4.33;;;;;20.07;44.72;99001.94;5085618;27;45545;-71
2022/04/08 15:12:42;;;;;;;;;1.67;1.67;;;;;20.33;44.22;99002.47;5085702;27;55167;-72
2022/04/08 15:15:08;;;;;;;;;2.67;2.67;;;;;20.61;44.17;99009.84;5089504;27;45448;-71
2022/04/08 15:17:33;;;;;;;;;5.67;3.33;;;;;20.87;43.12;99003.91;5087316;27;45387;-71
2022/04/08 15:19:59;;;;;;;;;2.67;2.67;;;;;21.15;43.22;99003.13;5084575;27;45454;-71
2022/04/08 15:22:27;;;;;;;;;2.00;2.00;;;;;21.41;43.00;98993.56;5086176;27;46112;-71
2022/04/08 15:24:53;;;;;;;;;3.00;3.00;;;;;21.65;42.57;99010.31;5085957;27;45470;-71
2022/04/08 15:27:19;;;;;;;;;1.67;1.67;;;;;21.87;42.27;99029.19;5079789;27;45479;-71
2022/04/08 15:29:44;;;;;;;;;0.00;0.00;;;;;22.08;41.27;99044.44;5092871;27;45554;-71
2022/04/08 15:32:12;;;;;;;;;3.00;3.00;;;;;22.27;41.13;99016.91;5076262;27;55765;-71
2022/04/08 15:34:40;;;;;;;;;6.67;3.67;;;;;22.44;41.16;99017.38;5081226;27;45539;-72
2022/04/08 15:37:05;;;;;;;;;3.00;3.00;;;;;22.59;41.44;99038.84;5081451;27;46380;-72
2022/04/08 15:39:30;;;;;;;;;5.00;3.33;;;;;22.74;40.68;99060.34;5075468;27;47140;-71
2022/04/08 15:41:56;;;;;;;;;2.67;2.33;;;;;22.86;40.88;99056.00;5083980;27;53854;-71
2022/04/08 15:44:21;;;;;;;;;1.67;1.67;;;;;22.97;40.22;99049.13;5075856;27;54603;-72
2022/04/08 15:46:46;;;;;;;;;3.00;3.00;;;;;23.09;40.10;99049.34;5079551;27;45585;-71
2022/04/08 15:49:12;;;;;;;;;3.00;2.00;;;;;23.16;39.76;99052.06;5079666;27;45459;-71
2022/04/08 15:51:40;;;;;;;;;4.33;2.67;;;;;23.27;39.41;99059.59;5069348;27;46335;-71
2022/04/08 15:54:06;;;;;;;;;5.33;2.33;;;;;23.33;39.51;99049.00;5078432;27;45391;-73
2022/04/08 15:56:31;;;;;;;;;1.00;1.00;;;;;23.42;39.40;99058.59;5085397;27;45469;-74
2022/04/08 15:58:57;;;;;;;;;2.67;1.67;;;;;23.50;39.94;99066.47;5080954;27;45441;-73
2022/04/08 16:01:23;;;;;;;;;4.33;3.67;;;;;23.59;39.73;99067.13;5083287;27;45596;-74
2022/04/08 16:03:48;;;;;;;;;4.00;2.00;;;;;23.67;39.54;99063.34;5074634;27;45469;-73
2022/04/08 16:06:14;;;;;;;;;3.33;3.33;;;;;23.78;39.36;99072.69;5083890;27;45567;-74
2022/04/08 16:08:39;;;;;;;;;2.00;2.00;;;;;23.85;39.51;99068.13;5075972;27;46474;-73
2022/04/08 16:11:06;;;;;;;;;2.67;2.33;;;;;23.95;39.10;99064.97;5073412;27;46005;-74
2022/04/08 16:13:31;;;;;;;;;2.33;2.00;;;;;24.04;38.73;99079.13;5066464;27;45526;-74
2022/04/08 16:15:58;;;;;;;;;1.67;1.67;;;;;24.12;39.02;99097.91;5058021;28;45532;-74
2022/04/08 16:18:23;;;;;;;;;5.00;3.00;;;;;24.18;38.99;99107.88;5068707;28;45415;-73
2022/04/08 16:20:50;;;;;;;;;3.00;1.67;;;;;24.26;38.65;99105.97;5059812;28;45433;-73
2022/04/08 16:23:16;;;;;;;;;2.00;2.00;;;;;24.31;38.58;99119.72;5067299;28;45501;-73
2022/04/08 16:25:42;;;;;;;;;1.00;1.00;;;;;24.39;38.46;99129.53;5064312;28;45580;-73
2022/04/08 16:28:07;;;;;;;;;2.00;2.00;;;;;24.41;38.34;99135.56;5069459;28;45646;-73
2022/04/08 16:30:32;;;;;;;;;4.00;1.67;;;;;24.48;38.10;99141.78;5068232;28;58050;-74
2022/04/08 16:32:58;;;;;;;;;3.33;1.33;;;;;24.52;37.83;99148.44;5070357;27;45608;-73
2022/04/08 16:35:23;;;;;;;;;4.33;3.67;;;;;24.54;38.15;99146.38;5070458;27;45311;-72
2022/04/08 16:37:49;;;;;;;;;7.00;5.00;;;;;24.57;38.23;99155.97;5068086;28;45599;-72
2022/04/08 16:40:14;;;;;;;;;6.00;5.00;;;;;24.59;37.81;99164.69;5069939;28;45660;-72
2022/04/08 16:42:43;;;;;;;;;3.67;2.00;;;;;24.64;37.87;99161.38;5070918;28;45569;-72
2022/04/08 16:45:13;;;;;;;;;4.67;3.33;;;;;24.64;38.02;99189.31;5071460;27;45547;-73
